Corazon Del Mar — EA3287 — position and weather

sailwx.info

Track history (hours):
 
Tides and Currents Weather Stations Pressure Air Temp Water Temp Dewpoint Dewpoint Depression Visibility Wind Speed Wind Dir Waves Ship Positions

Corazon Del Mar

Last reported at 2018-Feb-16 07:16 UTC. Time now 2018-Feb-18 09:15 UTC.
Position N 37°58' W 000°41'.

Length 21 m.

Type: Fishing. MMSI: 224107670.

Date/timePositionNaut miles runAvg speedWind from/ knotsBaromVisibWave heightAir tempDewpointWater temp
2018-Feb-16 07:16N 37°58' W 000°41'1 2.7
2018-Feb-16 07:00N 37°58' W 000°41'5 9.6
2018-Feb-16 06:30N 37°57' W 000°35'2 0.4
2018-Feb-16 00:55N 37°56' W 000°37'0 0.2
2018-Feb-16 00:30N 37°56' W 000°37'0 0.3
2018-Feb-16 00:00N 37°56' W 000°37'0 0.2
2018-Feb-15 22:56N 37°56' W 000°37'0 0.3
2018-Feb-15 22:23N 37°56' W 000°37'0 0.3
2018-Feb-15 21:37N 37°57' W 000°37'0 0.3
2018-Feb-15 21:30N 37°56' W 000°37'2 4.8
2018-Feb-15 21:00N 37°59' W 000°36'3 3.8
2018-Feb-15 20:20N 37°56' W 000°37'0 0.2
2018-Feb-15 19:56N 37°56' W 000°37'0 0.5
2018-Feb-15 19:30N 37°56' W 000°37'4 1.2
2018-Feb-15 16:31N 37°58' W 000°41'1 4.2
2018-Feb-15 16:23N 37°58' W 000°41'3 0.1
2018-Feb-14 00:25N 37°57' W 000°37'0 0.6
2018-Feb-14 00:00N 37°57' W 000°37'0 0.3
2018-Feb-13 23:30N 37°57' W 000°37'0 0.1
2018-Feb-13 22:48N 37°57' W 000°37'0 0.1
2018-Feb-13 22:13N 37°57' W 000°37'0 0.6
2018-Feb-13 21:33N 37°57' W 000°37'0 0.2
2018-Feb-13 21:30N 37°57' W 000°37'3 4.7
2018-Feb-13 20:55N 37°57' W 000°40'1 0.1
2018-Feb-13 07:03N 37°58' W 000°41'0 8.8
2018-Feb-13 07:00N 37°58' W 000°41'2 0.4
2018-Feb-13 02:20N 37°57' W 000°39'0 0.9
2018-Feb-13 02:00N 37°57' W 000°39'0 0.4
2018-Feb-13 01:28N 37°57' W 000°39'1 2.1
2018-Feb-13 00:45N 37°57' W 000°37'0 0.2
2018-Feb-13 00:30N 37°57' W 000°37'0 0.1
2018-Feb-12 23:42N 37°57' W 000°37'0 0.1
2018-Feb-12 23:12N 37°57' W 000°37'0 0.1
2018-Feb-12 22:42N 37°57' W 000°37'1 2.4
2018-Feb-12 22:30N 37°57' W 000°37'3 3.4
2018-Feb-12 21:32N 37°58' W 000°41'1 7.6
2018-Feb-12 21:28N 37°58' W 000°41'  
2018-Feb-09 13:31N 37°58' W 000°41'  
Track history (hours):
 
Tides and Currents Weather Stations Pressure Air Temp Water Temp Dewpoint Dewpoint Depression Visibility Wind Speed Wind Dir Waves Ship Positions

Corazon Del Mar

Last reported at 2018-Feb-16 07:16 UTC. Time now 2018-Feb-18 09:15 UTC.
Position N 37°58' W 000°41'.

Length 21 m.

Type: Fishing. MMSI: 224107670.

Date/timePositionNaut miles runAvg speedWind from/ knotsBaromVisibWave heightAir tempDewpointWater temp
2018-Feb-16 07:16N 37°58' W 000°41'1 2.7
2018-Feb-16 07:00N 37°58' W 000°41'5 9.6
2018-Feb-16 06:30N 37°57' W 000°35'2 0.4
2018-Feb-16 00:55N 37°56' W 000°37'0 0.2
2018-Feb-16 00:30N 37°56' W 000°37'0 0.3
2018-Feb-16 00:00N 37°56' W 000°37'0 0.2
2018-Feb-15 22:56N 37°56' W 000°37'0 0.3
2018-Feb-15 22:23N 37°56' W 000°37'0 0.3
2018-Feb-15 21:37N 37°57' W 000°37'0 0.3
2018-Feb-15 21:30N 37°56' W 000°37'2 4.8
2018-Feb-15 21:00N 37°59' W 000°36'3 3.8
2018-Feb-15 20:20N 37°56' W 000°37'0 0.2
2018-Feb-15 19:56N 37°56' W 000°37'0 0.5
2018-Feb-15 19:30N 37°56' W 000°37'4 1.2
2018-Feb-15 16:31N 37°58' W 000°41'1 4.2
2018-Feb-15 16:23N 37°58' W 000°41'3 0.1
2018-Feb-14 00:25N 37°57' W 000°37'0 0.6
2018-Feb-14 00:00N 37°57' W 000°37'0 0.3
2018-Feb-13 23:30N 37°57' W 000°37'0 0.1
2018-Feb-13 22:48N 37°57' W 000°37'0 0.1
2018-Feb-13 22:13N 37°57' W 000°37'0 0.6
2018-Feb-13 21:33N 37°57' W 000°37'0 0.2
2018-Feb-13 21:30N 37°57' W 000°37'3 4.7
2018-Feb-13 20:55N 37°57' W 000°40'1 0.1
2018-Feb-13 07:03N 37°58' W 000°41'0 8.8
2018-Feb-13 07:00N 37°58' W 000°41'2 0.4
2018-Feb-13 02:20N 37°57' W 000°39'0 0.9
2018-Feb-13 02:00N 37°57' W 000°39'0 0.4
2018-Feb-13 01:28N 37°57' W 000°39'1 2.1
2018-Feb-13 00:45N 37°57' W 000°37'0 0.2
2018-Feb-13 00:30N 37°57' W 000°37'0 0.1
2018-Feb-12 23:42N 37°57' W 000°37'0 0.1
2018-Feb-12 23:12N 37°57' W 000°37'0 0.1
2018-Feb-12 22:42N 37°57' W 000°37'1 2.4
2018-Feb-12 22:30N 37°57' W 000°37'3 3.4
2018-Feb-12 21:32N 37°58' W 000°41'1 7.6
2018-Feb-12 21:28N 37°58' W 000°41'  
2018-Feb-09 13:31N 37°58' W 000°41'  

Dump ship's entire track history